MDT,Max TemperatureF,Mean TemperatureF,Min TemperatureF,Max Dew PointF,MeanDew PointF,Min DewpointF,Max Humidity, Mean Humidity, Min Humidity, Max Sea Level PressureIn, Mean Sea Level PressureIn, Min Sea Level PressureIn, Max VisibilityMiles, Mean VisibilityMiles, Min VisibilityMiles, Max Wind SpeedMPH, Mean Wind SpeedMPH, Max Gust SpeedMPH,PrecipitationIn, CloudCover, Events, WindDirDegrees
2013-10-1,71,56,41,34,28,25,61,36,19,30.26,30.18,30.10,10,10,10,23,10,26,0.00,0,,300
2013-10-2,68,52,37,27,22,18,56,32,15,30.22,30.15,30.06,10,10,10,16,9,23,0.00,0,,306
2013-10-3,68,50,32,27,24,21,65,40,19,30.09,29.98,29.85,10,10,10,28,7,31,0.00,0,,258
2013-10-4,46,37,28,28,15,-2,93,46,13,30.24,30.06,29.83,10,10,2,37,17,46,0.00,2,Snow,330
2013-10-5,53,38,24,18,14,5,64,40,15,30.38,30.29,30.23,10,10,10,22,16,32,0.00,0,,338
2013-10-6,62,46,30,21,14,9,52,33,16,30.45,30.40,30.34,10,10,10,18,10,25,0.00,0,,316
2013-10-7,68,50,32,23,21,18,64,38,17,30.41,30.33,30.23,10,10,10,15,9,20,0.00,0,,335
2013-10-8,66,48,30,23,21,19,64,39,18,30.23,30.11,29.97,10,10,10,23,7,29,0.00,0,,297
2013-10-9,64,47,30,27,21,18,69,42,16,30.10,30.04,29.99,10,10,10,16,7,22,0.00,1,,300
2013-10-10,55,40,23,36,30,21,100,69,33,30.08,29.91,29.78,10,9,1,31,8,47,0.04,5,,164
2013-10-11,50,34,19,32,26,18,93,73,37,30.17,30.04,29.92,10,10,10,21,7,25,0.00,5,,350
2013-10-12,53,38,24,30,25,21,93,61,30,30.27,30.21,30.15,10,10,10,15,7,,0.00,0,,319
2013-10-13,60,45,30,39,30,23,93,61,29,30.28,30.19,30.07,10,10,10,21,6,26,0.00,5,Rain-Thunderstorm,240
2013-10-14,51,40,30,37,23,16,100,54,26,30.21,30.08,30.01,10,10,10,31,9,41,0.00,1,,321
2013-10-15,46,35,24,32,23,19,100,65,34,30.22,30.16,30.07,10,9,2,14,7,17,0.01,5,Snow,325
2013-10-16,44,36,28,32,25,18,100,73,36,30.20,30.14,30.10,10,7,0,23,6,33,0.07,5,Fog-Snow,335
2013-10-17,50,36,23,21,18,14,74,51,30,30.22,30.13,30.02,10,10,10,16,10,20,0.00,0,,296
2013-10-18,46,35,24,27,14,3,86,44,17,30.26,30.13,30.03,10,10,2,25,12,34,0.00,2,Snow,325
2013-10-19,55,39,23,18,13,10,64,40,18,30.27,30.20,30.13,10,10,10,23,9,32,0.00,0,,325
2013-10-20,53,38,24,19,16,12,69,42,21,30.13,30.08,30.00,10,10,10,23,12,28,0.00,0,,316
2013-10-21,55,40,24,23,16,5,80,42,14,30.29,30.21,30.11,10,10,10,18,10,28,0.00,0,,328
2013-10-22,57,42,28,18,17,14,59,38,21,30.39,30.32,30.28,10,10,10,18,10,22,0.00,0,,307
2013-10-23,59,44,28,21,18,18,64,40,20,30.35,30.30,30.24,10,10,10,20,11,23,0.00,0,,314
2013-10-24,60,45,30,21,18,16,55,38,19,30.37,30.31,30.26,10,10,10,15,10,20,0.00,1,,327
2013-10-25,55,42,30,37,27,19,93,57,33,30.37,30.32,30.23,10,10,7,20,8,25,0.10,5,Rain-Thunderstorm,331
2013-10-26,59,46,33,36,30,19,93,61,25,30.42,30.37,30.33,10,10,10,20,13,26,0.00,1,,318
2013-10-27,55,42,28,30,26,23,86,61,33,30.35,30.18,30.01,10,10,10,12,7,16,0.00,1,,327
2013-10-28,57,42,26,32,23,16,93,54,20,30.07,30.01,29.93,10,10,10,21,6,29,0.00,3,,204
2013-10-29,53,40,26,32,22,12,87,52,19,30.06,29.99,29.93,10,10,7,26,9,39,0.00,1,Rain-Thunderstorm,191
2013-10-30,42,32,23,32,20,16,93,60,36,30.01,29.94,29.88,10,10,10,17,9,22,0.00,3,,338
2013-10-31,41,34,28,19,16,14,64,50,33,30.10,30.03,29.92,10,10,10,32,19,41,0.00,3,,330